createdAt,value
2019-02-18T00:00:14.957Z,0
2019-02-18T00:01:16.342Z,0
2019-02-18T00:02:17.735Z,0
2019-02-18T00:03:19.126Z,0
2019-02-18T00:04:20.516Z,0
2019-02-18T00:05:21.904Z,0
2019-02-18T00:06:23.295Z,0
2019-02-18T00:07:24.685Z,0
2019-02-18T00:08:26.071Z,0
2019-02-18T00:09:27.459Z,0
2019-02-18T00:10:28.844Z,0
2019-02-18T00:11:30.233Z,0
2019-02-18T00:12:31.620Z,0
2019-02-18T00:13:33.013Z,0
2019-02-18T00:14:34.406Z,0
2019-02-18T00:15:35.846Z,0
2019-02-18T00:16:37.242Z,0
2019-02-18T00:17:38.633Z,0
2019-02-18T00:18:40.021Z,0
2019-02-18T00:19:41.416Z,0
2019-02-18T00:20:42.807Z,0
2019-02-18T00:21:44.195Z,0
2019-02-18T00:22:45.579Z,0
2019-02-18T00:23:46.966Z,0
2019-02-18T00:24:48.352Z,0
2019-02-18T00:25:49.743Z,0
2019-02-18T00:26:51.136Z,0
2019-02-18T00:27:52.530Z,0
2019-02-18T00:28:53.918Z,0
2019-02-18T00:29:55.366Z,0
2019-02-18T00:30:56.757Z,0
2019-02-18T00:31:58.142Z,0
2019-02-18T00:32:59.527Z,0
2019-02-18T00:34:00.913Z,0
2019-02-18T00:35:02.306Z,0
2019-02-18T00:36:03.693Z,0
2019-02-18T00:37:05.105Z,0
2019-02-18T00:38:06.493Z,0
2019-02-18T00:39:07.886Z,0
2019-02-18T00:40:09.282Z,0
2019-02-18T00:41:10.672Z,0
2019-02-18T00:42:12.067Z,0
2019-02-18T00:43:13.455Z,0
2019-02-18T00:44:14.841Z,0
2019-02-18T00:45:16.231Z,0
2019-02-18T00:46:17.618Z,0
2019-02-18T00:47:19.009Z,0
2019-02-18T00:48:20.401Z,0
2019-02-18T00:49:21.794Z,0
2019-02-18T00:50:23.180Z,0
2019-02-18T00:51:24.562Z,0
2019-02-18T00:52:25.964Z,0
2019-02-18T00:53:27.334Z,0
2019-02-18T00:54:28.808Z,0
2019-02-18T00:55:30.199Z,0
2019-02-18T00:56:31.591Z,0
2019-02-18T00:57:32.978Z,0
2019-02-18T00:58:34.362Z,0
2019-02-18T00:59:35.810Z,0
2019-02-18T01:00:37.141Z,0
2019-02-18T01:01:38.529Z,0
2019-02-18T01:02:39.923Z,0
2019-02-18T01:03:41.310Z,0
2019-02-18T01:04:42.699Z,0
2019-02-18T01:05:44.199Z,0
2019-02-18T01:06:45.625Z,0
2019-02-18T01:07:47.010Z,0
2019-02-18T01:08:48.399Z,0
2019-02-18T01:09:49.783Z,0
2019-02-18T01:10:51.172Z,0
2019-02-18T01:11:52.559Z,0
2019-02-18T01:12:53.945Z,0
2019-02-18T01:13:55.331Z,0
2019-02-18T01:14:56.719Z,0
2019-02-18T01:15:58.111Z,0
2019-02-18T01:16:59.499Z,0
2019-02-18T01:18:00.887Z,0
2019-02-18T01:19:02.276Z,0
2019-02-18T01:20:03.661Z,0
2019-02-18T01:21:05.049Z,0
2019-02-18T01:22:06.437Z,0
2019-02-18T01:23:07.825Z,0
2019-02-18T01:24:09.214Z,0
2019-02-18T01:25:10.596Z,0
2019-02-18T01:26:11.984Z,0
2019-02-18T01:27:13.377Z,0
2019-02-18T01:28:14.769Z,0
2019-02-18T01:29:16.203Z,0
2019-02-18T01:30:17.594Z,0
2019-02-18T01:31:18.989Z,0
2019-02-18T01:32:20.387Z,0
2019-02-18T01:33:21.779Z,0
2019-02-18T01:34:23.169Z,0
2019-02-18T01:35:24.560Z,0
2019-02-18T01:36:25.939Z,0
2019-02-18T01:37:27.338Z,0
2019-02-18T01:38:28.725Z,0
2019-02-18T01:39:30.118Z,0
2019-02-18T01:40:31.510Z,0
2019-02-18T01:41:32.896Z,0
2019-02-18T01:42:34.285Z,0
2019-02-18T01:43:35.684Z,0
2019-02-18T01:44:37.071Z,0
2019-02-18T01:45:38.456Z,0
2019-02-18T01:46:39.843Z,0
2019-02-18T01:47:41.231Z,0
2019-02-18T01:48:42.618Z,0
2019-02-18T01:49:44.005Z,0
2019-02-18T01:50:45.385Z,0
2019-02-18T01:51:46.779Z,0
2019-02-18T01:52:48.168Z,0
2019-02-18T01:53:49.557Z,0
2019-02-18T01:54:50.943Z,0
2019-02-18T01:55:52.415Z,0
2019-02-18T01:56:53.824Z,0
2019-02-18T01:57:55.216Z,0
2019-02-18T01:58:56.599Z,0
2019-02-18T01:59:57.993Z,0
2019-02-18T02:00:59.379Z,0
2019-02-18T02:02:00.779Z,0
2019-02-18T02:03:02.167Z,0
2019-02-18T02:04:03.552Z,0
2019-02-18T02:05:04.944Z,0
2019-02-18T02:06:06.333Z,0
2019-02-18T02:07:07.719Z,0
2019-02-18T02:08:09.111Z,0
2019-02-18T02:09:10.500Z,0
2019-02-18T02:10:11.894Z,0
2019-02-18T02:11:13.300Z,0
2019-02-18T02:12:14.668Z,0
2019-02-18T02:13:16.056Z,0
2019-02-18T02:14:17.444Z,0
2019-02-18T02:15:18.832Z,0
2019-02-18T02:16:20.220Z,0
2019-02-18T02:17:21.605Z,0
2019-02-18T02:18:22.994Z,0
2019-02-18T02:19:24.384Z,0
2019-02-18T02:20:25.775Z,0
2019-02-18T02:21:27.163Z,0
2019-02-18T02:22:28.548Z,0
2019-02-18T02:23:29.994Z,0
2019-02-18T02:24:31.334Z,0
2019-02-18T02:25:32.720Z,0
2019-02-18T02:26:34.109Z,0
2019-02-18T02:27:35.498Z,0
2019-02-18T02:28:36.886Z,0
2019-02-18T02:29:38.280Z,0
2019-02-18T02:30:39.665Z,0
2019-02-18T02:31:41.063Z,0
2019-02-18T02:32:42.451Z,0
2019-02-18T02:33:43.841Z,0
2019-02-18T02:34:45.230Z,0
2019-02-18T02:35:46.625Z,0
2019-02-18T02:36:48.017Z,0
2019-02-18T02:37:49.394Z,0
2019-02-18T02:38:50.833Z,0
2019-02-18T02:39:52.173Z,0
2019-02-18T02:40:53.573Z,0
2019-02-18T02:41:54.954Z,0
2019-02-18T02:42:56.354Z,0
2019-02-18T02:43:57.740Z,0
2019-02-18T02:44:59.125Z,0
2019-02-18T02:46:00.646Z,0
2019-02-18T02:47:02.084Z,0
2019-02-18T02:48:03.475Z,0
2019-02-18T02:49:04.862Z,0
2019-02-18T02:50:06.251Z,0
2019-02-18T02:51:07.639Z,0
2019-02-18T02:52:09.031Z,0
2019-02-18T02:53:10.423Z,0
2019-02-18T02:54:11.822Z,0
2019-02-18T02:55:13.213Z,0
2019-02-18T02:56:14.600Z,0
2019-02-18T02:57:15.991Z,0
2019-02-18T02:58:17.377Z,0
2019-02-18T02:59:18.762Z,0
2019-02-18T03:00:20.208Z,0
2019-02-18T03:01:21.595Z,0
2019-02-18T03:02:22.989Z,0
2019-02-18T03:03:24.370Z,0
2019-02-18T03:04:25.760Z,0
2019-02-18T03:05:27.145Z,0
2019-02-18T03:06:28.532Z,0
2019-02-18T03:07:29.917Z,0
2019-02-18T03:08:31.301Z,0
2019-02-18T03:09:32.691Z,0
2019-02-18T03:10:34.072Z,0
2019-02-18T03:11:35.467Z,0
2019-02-18T03:12:36.853Z,0
2019-02-18T03:13:38.242Z,0
2019-02-18T03:14:39.641Z,0
2019-02-18T03:15:41.040Z,0
2019-02-18T03:16:42.425Z,0
2019-02-18T03:17:43.801Z,0
2019-02-18T03:18:45.193Z,0
2019-02-18T03:19:46.581Z,0
2019-02-18T03:20:47.965Z,0
2019-02-18T03:21:49.355Z,0
2019-02-18T03:22:50.756Z,0
2019-02-18T03:23:52.141Z,0
2019-02-18T03:24:53.525Z,0
2019-02-18T03:25:54.914Z,0
2019-02-18T03:26:56.305Z,0
2019-02-18T03:27:57.692Z,0
2019-02-18T03:28:59.072Z,0
2019-02-18T03:30:00.461Z,0
2019-02-18T03:31:01.889Z,0
2019-02-18T03:32:03.234Z,0
2019-02-18T03:33:04.643Z,0
2019-02-18T03:34:06.010Z,0
2019-02-18T03:35:07.396Z,0
2019-02-18T03:36:08.819Z,0
2019-02-18T03:37:10.211Z,0
2019-02-18T03:38:11.602Z,0
2019-02-18T03:39:13.012Z,0
2019-02-18T03:40:14.412Z,0
2019-02-18T03:41:15.803Z,0
2019-02-18T03:42:17.198Z,0
2019-02-18T03:43:18.584Z,0
2019-02-18T03:44:19.969Z,0
2019-02-18T03:45:21.353Z,0
2019-02-18T03:46:22.740Z,0
2019-02-18T03:47:24.124Z,0
2019-02-18T03:48:25.511Z,0
2019-02-18T03:49:26.911Z,0
2019-02-18T03:50:28.294Z,0
2019-02-18T03:51:29.678Z,0
2019-02-18T03:52:31.070Z,0
2019-02-18T03:53:32.449Z,0
2019-02-18T03:54:33.835Z,0
2019-02-18T03:55:35.222Z,0
2019-02-18T03:56:36.611Z,0
2019-02-18T03:57:37.997Z,0
2019-02-18T03:58:39.387Z,0
2019-02-18T03:59:40.771Z,0
2019-02-18T04:00:42.157Z,0
2019-02-18T04:01:43.545Z,0
2019-02-18T04:02:44.934Z,0
2019-02-18T04:03:46.327Z,0
2019-02-18T04:04:47.708Z,0
2019-02-18T04:05:49.098Z,0
2019-02-18T04:06:50.480Z,0
2019-02-18T04:07:51.869Z,0
2019-02-18T04:08:53.258Z,0
2019-02-18T04:09:54.653Z,0
2019-02-18T04:10:56.038Z,0
2019-02-18T04:11:57.495Z,0
2019-02-18T04:12:58.776Z,0
2019-02-18T04:14:00.162Z,0
2019-02-18T04:15:01.548Z,0
2019-02-18T04:16:02.937Z,0
2019-02-18T04:17:04.325Z,0
2019-02-18T04:18:05.716Z,0
2019-02-18T04:19:07.101Z,0
2019-02-18T04:20:08.487Z,0
2019-02-18T04:21:09.875Z,0
2019-02-18T04:22:11.263Z,0
2019-02-18T04:23:12.649Z,0
2019-02-18T04:24:14.039Z,0
2019-02-18T04:25:15.431Z,0
2019-02-18T04:26:16.818Z,0
2019-02-18T04:27:18.334Z,0
2019-02-18T04:28:19.740Z,0
2019-02-18T04:29:21.130Z,0
2019-02-18T04:30:22.520Z,0
2019-02-18T04:31:23.910Z,0
2019-02-18T04:32:25.298Z,0
2019-02-18T04:33:26.688Z,0
2019-02-18T04:34:28.070Z,0
2019-02-18T04:35:29.455Z,0
2019-02-18T04:36:30.840Z,0
2019-02-18T04:37:32.231Z,0
2019-02-18T04:38:33.628Z,0
2019-02-18T04:39:35.021Z,0
2019-02-18T04:40:36.410Z,0
2019-02-18T04:41:37.793Z,0
2019-02-18T04:42:39.178Z,0
2019-02-18T04:43:42.183Z,0
2019-02-18T04:44:41.919Z,0
2019-02-18T04:45:43.305Z,0
2019-02-18T04:46:44.692Z,0
2019-02-18T04:47:46.080Z,0
2019-02-18T04:48:47.566Z,0
2019-02-18T04:49:48.844Z,0
2019-02-18T04:50:50.230Z,0
2019-02-18T04:51:51.616Z,0
2019-02-18T04:52:53.003Z,0
2019-02-18T04:53:54.439Z,0
2019-02-18T04:54:55.826Z,0
2019-02-18T04:55:57.207Z,0
2019-02-18T04:56:58.592Z,0
2019-02-18T04:57:59.985Z,0
2019-02-18T04:59:01.384Z,0
2019-02-18T05:00:02.761Z,0
2019-02-18T05:01:04.143Z,0
2019-02-18T05:02:05.523Z,0
2019-02-18T05:03:06.904Z,0
2019-02-18T05:04:08.295Z,0
2019-02-18T05:05:09.680Z,0
2019-02-18T05:06:11.062Z,0
2019-02-18T05:07:12.450Z,0
2019-02-18T05:08:13.837Z,0
2019-02-18T05:09:15.223Z,0
2019-02-18T05:10:16.606Z,0
2019-02-18T05:11:17.991Z,0
2019-02-18T05:12:19.378Z,0
2019-02-18T05:13:20.765Z,0
2019-02-18T05:14:22.155Z,0
2019-02-18T05:15:23.542Z,0
2019-02-18T05:16:24.928Z,0
2019-02-18T05:17:26.314Z,0
2019-02-18T05:18:27.778Z,0
2019-02-18T05:19:29.159Z,0
2019-02-18T05:20:30.539Z,0
2019-02-18T05:21:31.924Z,0
2019-02-18T05:22:33.312Z,0
2019-02-18T05:23:34.703Z,0
2019-02-18T05:24:36.092Z,0
2019-02-18T05:25:37.478Z,0
2019-02-18T05:26:38.866Z,0
2019-02-18T05:27:40.257Z,0
2019-02-18T05:28:41.641Z,0
2019-02-18T05:29:43.037Z,0
2019-02-18T05:30:44.422Z,0
2019-02-18T05:31:45.804Z,0
2019-02-18T05:32:47.189Z,0
2019-02-18T05:33:48.657Z,0
2019-02-18T05:34:50.048Z,0
2019-02-18T05:35:51.438Z,0
2019-02-18T05:36:52.823Z,0
2019-02-18T05:37:54.213Z,0
2019-02-18T05:38:55.596Z,0
2019-02-18T05:39:56.982Z,0
2019-02-18T05:40:58.369Z,0
2019-02-18T05:41:59.757Z,0
2019-02-18T05:43:01.147Z,0
2019-02-18T05:44:02.538Z,0
2019-02-18T05:45:03.926Z,0
2019-02-18T05:46:05.311Z,0
2019-02-18T05:47:06.699Z,0
2019-02-18T05:48:08.089Z,0
2019-02-18T05:49:09.477Z,0
2019-02-18T05:50:10.869Z,0
2019-02-18T05:51:12.258Z,0
2019-02-18T05:52:13.644Z,0
2019-02-18T05:53:15.033Z,0
2019-02-18T05:54:16.422Z,0
2019-02-18T05:55:17.813Z,0
2019-02-18T05:56:19.208Z,0
2019-02-18T05:57:22.761Z,0
2019-02-18T05:58:21.938Z,0
2019-02-18T05:59:23.328Z,0
2019-02-18T06:00:24.725Z,0
2019-02-18T06:01:26.109Z,0
2019-02-18T06:02:27.497Z,0
2019-02-18T06:03:28.882Z,0
2019-02-18T06:04:30.279Z,0
2019-02-18T06:05:31.672Z,0
2019-02-18T06:06:33.050Z,0
2019-02-18T06:07:34.434Z,0
2019-02-18T06:08:35.951Z,0
2019-02-18T06:09:37.339Z,0
2019-02-18T06:10:38.726Z,0
2019-02-18T06:11:40.112Z,0
2019-02-18T06:12:41.503Z,0
2019-02-18T06:13:42.895Z,4
2019-02-18T06:14:44.278Z,4
2019-02-18T06:15:45.665Z,0
2019-02-18T06:16:47.071Z,0
2019-02-18T06:17:48.461Z,0
2019-02-18T06:18:49.859Z,4
2019-02-18T06:19:51.240Z,4
2019-02-18T06:20:52.629Z,4
2019-02-18T06:21:54.013Z,4
2019-02-18T06:22:55.400Z,4
2019-02-18T06:23:56.789Z,4
2019-02-18T06:24:58.179Z,4
2019-02-18T06:25:59.590Z,8
2019-02-18T06:27:00.981Z,12
2019-02-18T06:28:04.727Z,12
2019-02-18T06:29:03.720Z,16
2019-02-18T06:30:05.104Z,16
2019-02-18T06:31:06.492Z,20
2019-02-18T06:32:07.881Z,24
2019-02-18T06:33:09.269Z,28
2019-02-18T06:34:10.663Z,32
2019-02-18T06:35:12.039Z,36
2019-02-18T06:36:13.445Z,40
2019-02-18T06:37:14.831Z,44
2019-02-18T06:38:16.219Z,48
2019-02-18T06:39:17.610Z,56
2019-02-18T06:40:19.001Z,60
2019-02-18T06:41:20.388Z,64
2019-02-18T06:42:21.791Z,72
2019-02-18T06:43:23.172Z,80
2019-02-18T06:44:24.563Z,88
2019-02-18T06:45:25.948Z,92
2019-02-18T06:46:27.334Z,100
2019-02-18T06:47:28.725Z,112
2019-02-18T06:48:30.113Z,116
2019-02-18T06:49:31.502Z,128
2019-02-18T06:50:32.886Z,136
2019-02-18T06:51:34.282Z,144
2019-02-18T06:52:35.670Z,156
2019-02-18T06:53:37.063Z,164
2019-02-18T06:54:38.446Z,176
2019-02-18T06:55:39.841Z,184
2019-02-18T06:56:41.229Z,196
2019-02-18T06:57:42.613Z,204
2019-02-18T06:58:44.051Z,216
2019-02-18T06:59:45.446Z,224
2019-02-18T07:00:46.860Z,236
2019-02-18T07:01:48.247Z,248
2019-02-18T07:02:49.638Z,256
2019-02-18T07:03:51.027Z,268
2019-02-18T07:04:52.435Z,276
2019-02-18T07:05:53.790Z,288
2019-02-18T07:06:55.184Z,300
2019-02-18T07:07:56.569Z,312
2019-02-18T07:08:57.975Z,320
2019-02-18T07:09:59.372Z,332
2019-02-18T07:11:00.765Z,340
2019-02-18T07:12:02.150Z,352
2019-02-18T07:13:03.537Z,364
2019-02-18T07:14:04.931Z,376
2019-02-18T07:15:06.320Z,384
2019-02-18T07:16:07.710Z,392
2019-02-18T07:17:10.407Z,404
2019-02-18T07:18:10.500Z,412
2019-02-18T07:19:11.889Z,424
2019-02-18T07:20:13.285Z,436
2019-02-18T07:21:14.666Z,444
2019-02-18T07:22:16.058Z,456
2019-02-18T07:23:17.445Z,464
2019-02-18T07:24:18.836Z,472
2019-02-18T07:25:20.223Z,484
2019-02-18T07:26:21.626Z,492
2019-02-18T07:27:23.014Z,500
2019-02-18T07:28:24.406Z,508
2019-02-18T07:29:25.803Z,520
2019-02-18T07:30:27.189Z,528
2019-02-18T07:31:28.586Z,536
2019-02-18T07:32:29.978Z,544
2019-02-18T07:33:31.365Z,552
2019-02-18T07:34:32.755Z,564
2019-02-18T07:35:34.143Z,568
2019-02-18T07:36:35.540Z,576
2019-02-18T07:37:36.932Z,584
2019-02-18T07:38:38.320Z,592
2019-02-18T07:39:39.706Z,600
2019-02-18T07:40:41.101Z,608
2019-02-18T07:41:42.515Z,616
2019-02-18T07:42:43.905Z,624
2019-02-18T07:43:45.309Z,628
2019-02-18T07:44:46.706Z,640
2019-02-18T07:45:48.099Z,644
2019-02-18T07:46:49.490Z,656
2019-02-18T07:47:50.881Z,660
2019-02-18T07:48:52.294Z,668
2019-02-18T07:49:53.770Z,676
2019-02-18T07:50:55.163Z,684
2019-02-18T07:51:56.552Z,692
2019-02-18T07:52:57.944Z,700
2019-02-18T07:53:59.329Z,704
2019-02-18T07:55:00.719Z,712
2019-02-18T07:56:02.102Z,720
2019-02-18T07:57:03.498Z,728
2019-02-18T07:58:04.892Z,732
2019-02-18T07:59:06.281Z,740
2019-02-18T08:00:07.672Z,748
2019-02-18T08:01:09.065Z,756
2019-02-18T08:02:10.449Z,760
2019-02-18T08:03:11.849Z,768
2019-02-18T08:04:13.240Z,772
2019-02-18T08:05:14.633Z,784
2019-02-18T08:06:16.025Z,792
2019-02-18T08:07:17.414Z,796
2019-02-18T08:08:18.805Z,804
2019-02-18T08:09:20.194Z,812
2019-02-18T08:10:21.581Z,816
2019-02-18T08:11:22.971Z,824
2019-02-18T08:12:24.368Z,832
2019-02-18T08:13:26.784Z,840
2019-02-18T08:14:27.127Z,844
2019-02-18T08:15:28.519Z,848
2019-02-18T08:16:29.919Z,860
2019-02-18T08:17:31.322Z,864
2019-02-18T08:18:32.708Z,872
2019-02-18T08:19:34.100Z,876
2019-02-18T08:20:35.493Z,884
2019-02-18T08:21:36.887Z,892
2019-02-18T08:22:38.273Z,896
2019-02-18T08:23:39.660Z,908
2019-02-18T08:24:41.050Z,912
2019-02-18T08:25:42.448Z,920
2019-02-18T08:26:44.192Z,924
2019-02-18T08:27:45.181Z,932
2019-02-18T08:28:46.576Z,936
2019-02-18T08:29:47.958Z,944
2019-02-18T08:30:49.355Z,952
2019-02-18T08:31:50.743Z,960
2019-02-18T08:32:52.132Z,968
2019-02-18T08:33:53.519Z,980
2019-02-18T08:34:54.918Z,984
2019-02-18T08:35:56.301Z,992
2019-02-18T08:36:57.691Z,1004
2019-02-18T08:37:59.127Z,1012
2019-02-18T08:39:00.591Z,1020
2019-02-18T08:40:01.987Z,1032
2019-02-18T08:41:03.384Z,1044
2019-02-18T08:42:04.771Z,1052
2019-02-18T08:43:06.167Z,1064
2019-02-18T08:44:07.561Z,1080
2019-02-18T08:45:08.970Z,1088
2019-02-18T08:46:10.506Z,1104
2019-02-18T08:47:11.864Z,1120
2019-02-18T08:48:13.256Z,1132
2019-02-18T08:49:14.652Z,1144
2019-02-18T08:50:16.041Z,1160
2019-02-18T08:51:17.481Z,1176
2019-02-18T08:52:18.878Z,1192
2019-02-18T08:53:20.275Z,1212
2019-02-18T08:54:21.669Z,1232
2019-02-18T08:55:23.061Z,1256
2019-02-18T08:56:24.451Z,1276
2019-02-18T08:57:25.843Z,1300
2019-02-18T08:58:27.235Z,1324
2019-02-18T08:59:28.629Z,1348
2019-02-18T09:00:30.024Z,1380
2019-02-18T09:01:31.418Z,1412
2019-02-18T09:02:32.814Z,1448
2019-02-18T09:03:34.213Z,1484
2019-02-18T09:04:35.611Z,1532
2019-02-18T09:05:37.004Z,1580
2019-02-18T09:06:38.394Z,1644
2019-02-18T09:07:39.789Z,1704
2019-02-18T09:08:41.189Z,1772
2019-02-18T09:09:42.581Z,1836
2019-02-18T09:10:43.974Z,1904
2019-02-18T09:11:45.367Z,1976
2019-02-18T09:12:46.761Z,2056
2019-02-18T09:13:48.165Z,2132
2019-02-18T09:14:49.548Z,2216
2019-02-18T09:15:59.673Z,2312
2019-02-18T09:16:52.295Z,2420
2019-02-18T09:17:53.690Z,2532
2019-02-18T09:18:55.109Z,2648
2019-02-18T09:19:56.499Z,2756
2019-02-18T09:20:57.901Z,2864
2019-02-18T09:21:59.294Z,2976
2019-02-18T09:23:00.694Z,3088
2019-02-18T09:24:02.088Z,3204
2019-02-18T09:25:03.489Z,3312
2019-02-18T09:26:04.889Z,3416
2019-02-18T09:27:06.426Z,3520
2019-02-18T09:28:07.824Z,3620
2019-02-18T09:29:09.224Z,3708
2019-02-18T09:30:10.639Z,3788
2019-02-18T09:31:12.041Z,3852
2019-02-18T09:32:13.443Z,3908
2019-02-18T09:33:14.840Z,3968
2019-02-18T09:34:16.241Z,4016
2019-02-18T09:35:17.635Z,4072
2019-02-18T09:36:21.347Z,4136
2019-02-18T09:37:20.393Z,4192
2019-02-18T09:38:25.030Z,4256
2019-02-18T09:39:30.529Z,4324
2019-02-18T09:40:24.522Z,4396
2019-02-18T09:41:25.916Z,4476
2019-02-18T09:42:27.314Z,4568
2019-02-18T09:43:28.708Z,4640
2019-02-18T09:44:30.108Z,4732
2019-02-18T09:45:31.498Z,4812
2019-02-18T09:46:32.898Z,4900
2019-02-18T09:47:34.298Z,4980
2019-02-18T09:48:35.694Z,5064
2019-02-18T09:49:37.088Z,5160
2019-02-18T09:50:38.485Z,5280
2019-02-18T09:51:39.895Z,5368
2019-02-18T09:52:41.289Z,5480
2019-02-18T09:53:42.689Z,5684
2019-02-18T09:54:44.090Z,7156
2019-02-18T09:55:45.487Z,11404
2019-02-18T09:56:46.885Z,16608
2019-02-18T09:57:48.278Z,18208
2019-02-18T09:58:50.251Z,16736
2019-02-18T09:59:51.036Z,11592
2019-02-18T10:00:52.439Z,9896
2019-02-18T10:01:53.833Z,9608
2019-02-18T10:02:55.375Z,8044
2019-02-18T10:03:56.783Z,8776
2019-02-18T10:04:58.177Z,8156
2019-02-18T10:05:59.576Z,8024
2019-02-18T10:07:00.980Z,8288
2019-02-18T10:08:02.387Z,8360
2019-02-18T10:09:03.847Z,8452
2019-02-18T10:10:05.249Z,9248
2019-02-18T10:11:06.644Z,9640
2019-02-18T10:12:17.749Z,9604
2019-02-18T10:13:09.466Z,11276
2019-02-18T10:14:10.886Z,13564
2019-02-18T10:15:12.296Z,13756
2019-02-18T10:16:13.697Z,10988
2019-02-18T10:17:15.093Z,15584
2019-02-18T10:18:16.493Z,15488
2019-02-18T10:19:17.894Z,13160
2019-02-18T10:20:19.318Z,12836
2019-02-18T10:21:20.713Z,16736
2019-02-18T10:22:22.129Z,32896
2019-02-18T10:23:23.531Z,46784
2019-02-18T10:24:24.931Z,48544
2019-02-18T10:25:26.334Z,51328
2019-02-18T10:26:27.734Z,49472
2019-02-18T10:27:29.168Z,48992
2019-02-18T10:28:30.564Z,52512
2019-02-18T10:29:31.968Z,52768
2019-02-18T10:30:33.369Z,50816
2019-02-18T10:31:34.767Z,53088
2019-02-18T10:32:36.194Z,53056
2019-02-18T10:33:37.597Z,51264
2019-02-18T10:34:39.036Z,50400
2019-02-18T10:35:40.443Z,46464
2019-02-18T10:36:41.859Z,45760
2019-02-18T10:37:43.219Z,47744
2019-02-18T10:38:44.631Z,52832
2019-02-18T10:39:46.042Z,56736
2019-02-18T10:40:47.445Z,53664
2019-02-18T10:41:48.857Z,53440
2019-02-18T10:42:50.263Z,54176
2019-02-18T10:43:51.673Z,54720
2019-02-18T10:44:53.078Z,53792
2019-02-18T10:45:54.483Z,52672
2019-02-18T10:46:55.897Z,54432
2019-02-18T10:47:57.299Z,53248
2019-02-18T10:48:58.702Z,54144
2019-02-18T10:50:00.112Z,57184
2019-02-18T10:51:01.478Z,58784
2019-02-18T10:52:02.889Z,59296
2019-02-18T10:53:04.292Z,60288
2019-02-18T10:54:05.705Z,58272
2019-02-18T10:55:07.109Z,57664
2019-02-18T10:56:08.484Z,58272
2019-02-18T10:57:09.885Z,57856
2019-02-18T10:58:11.301Z,57760
2019-02-18T10:59:12.711Z,59232
2019-02-18T11:00:14.119Z,58208
2019-02-18T11:01:15.528Z,55808
2019-02-18T11:02:17.054Z,56544
2019-02-18T11:03:18.460Z,58720
2019-02-18T11:04:19.864Z,59424
2019-02-18T11:05:21.239Z,57536
2019-02-18T11:06:22.671Z,56768
2019-02-18T11:07:24.076Z,56352
2019-02-18T11:08:25.486Z,56288
2019-02-18T11:09:26.895Z,56800
2019-02-18T11:10:28.302Z,58144
2019-02-18T11:11:29.709Z,60448
2019-02-18T11:12:31.164Z,59200
2019-02-18T11:13:32.570Z,58016
2019-02-18T11:14:33.978Z,59072
2019-02-18T11:15:35.391Z,57952
2019-02-18T11:16:36.802Z,56864
2019-02-18T11:17:39.198Z,57728
2019-02-18T11:18:39.604Z,39296
2019-02-18T11:19:40.975Z,15232
2019-02-18T11:20:42.384Z,9932
2019-02-18T11:21:43.794Z,9496
2019-02-18T11:22:45.200Z,9296
2019-02-18T11:23:46.609Z,9220
2019-02-18T11:24:48.012Z,9156
2019-02-18T11:25:49.422Z,9072
2019-02-18T11:26:50.832Z,9040
2019-02-18T11:27:52.246Z,9240
2019-02-18T11:28:53.614Z,9828
2019-02-18T11:29:55.021Z,11164
2019-02-18T11:30:56.430Z,12212
2019-02-18T11:31:57.837Z,22368
2019-02-18T11:32:59.247Z,48352
2019-02-18T11:34:00.646Z,60160
2019-02-18T11:35:02.053Z,57664
2019-02-18T11:36:03.464Z,57344
2019-02-18T11:37:04.873Z,60384
2019-02-18T11:38:06.283Z,60000
2019-02-18T11:39:07.649Z,57152
2019-02-18T11:40:09.057Z,54912
2019-02-18T11:41:10.467Z,47680
2019-02-18T11:42:11.883Z,20000
2019-02-18T11:43:13.286Z,10040
2019-02-18T11:44:14.687Z,9244
2019-02-18T11:45:16.095Z,8908
2019-02-18T11:46:17.499Z,8716
2019-02-18T11:47:18.918Z,8576
2019-02-18T11:48:20.388Z,8500
2019-02-18T11:49:21.856Z,8416
2019-02-18T11:50:23.238Z,8356
2019-02-18T11:51:24.650Z,8284
2019-02-18T11:52:26.056Z,8212
2019-02-18T11:53:27.466Z,8140
2019-02-18T11:54:28.871Z,8092
2019-02-18T11:55:30.279Z,8032
2019-02-18T11:56:31.683Z,8012
2019-02-18T11:57:33.088Z,7972
2019-02-18T11:58:34.448Z,7940
2019-02-18T11:59:35.852Z,7904
2019-02-18T12:00:37.254Z,7900
2019-02-18T12:01:38.661Z,7912
2019-02-18T12:02:40.091Z,7884
2019-02-18T12:03:41.499Z,7880
2019-02-18T12:04:42.903Z,7876
2019-02-18T12:05:44.308Z,7852
2019-02-18T12:06:45.722Z,7776
2019-02-18T12:07:47.093Z,7800
2019-02-18T12:08:48.493Z,7772
2019-02-18T12:09:49.896Z,7764
2019-02-18T12:10:51.300Z,7744
2019-02-18T12:11:52.698Z,7736
2019-02-18T12:12:55.843Z,7736
2019-02-18T12:13:55.466Z,7696
2019-02-18T12:14:56.869Z,7680
2019-02-18T12:15:58.273Z,7672
2019-02-18T12:16:59.637Z,7668
2019-02-18T12:18:01.049Z,7632
2019-02-18T12:19:02.446Z,7636
2019-02-18T12:20:03.850Z,7612
2019-02-18T12:21:05.260Z,7612
2019-02-18T12:22:06.661Z,7604
2019-02-18T12:23:08.065Z,7584
2019-02-18T12:24:09.466Z,7572
2019-02-18T12:25:10.873Z,7552
2019-02-18T12:26:12.241Z,7528
2019-02-18T12:27:13.642Z,7508
2019-02-18T12:28:15.049Z,7508
2019-02-18T12:29:25.919Z,7492
2019-02-18T12:30:17.821Z,7476
2019-02-18T12:31:19.219Z,7456
2019-02-18T12:32:20.622Z,7444
2019-02-18T12:33:22.031Z,7452
2019-02-18T12:34:23.429Z,7408
2019-02-18T12:35:30.884Z,7388
2019-02-18T12:36:26.310Z,7380
2019-02-18T12:37:29.957Z,7352
2019-02-18T12:38:29.156Z,7348
2019-02-18T12:39:30.435Z,7312
2019-02-18T12:40:31.836Z,7292
2019-02-18T12:41:33.236Z,7260
2019-02-18T12:42:34.636Z,7248
2019-02-18T12:43:36.039Z,7216
2019-02-18T12:44:37.445Z,7188
2019-02-18T12:45:38.811Z,7184
2019-02-18T12:46:40.218Z,7136
2019-02-18T12:47:41.614Z,7092
2019-02-18T12:48:43.020Z,7096
2019-02-18T12:49:44.428Z,7068
2019-02-18T12:50:45.830Z,7024
2019-02-18T12:51:47.235Z,7016
2019-02-18T12:52:48.636Z,7008
2019-02-18T12:53:50.003Z,6980
2019-02-18T12:54:51.494Z,6956
2019-02-18T12:55:52.781Z,6924
2019-02-18T12:56:54.185Z,6908
2019-02-18T12:57:55.588Z,6904
2019-02-18T12:58:56.987Z,6868
2019-02-18T12:59:58.571Z,6840
2019-02-18T13:00:59.753Z,6824
2019-02-18T13:02:01.120Z,6792
2019-02-18T13:03:02.523Z,6772
2019-02-18T13:04:03.927Z,6756
2019-02-18T13:05:05.348Z,6700
2019-02-18T13:06:06.787Z,6680
2019-02-18T13:07:08.187Z,6676
2019-02-18T13:08:09.592Z,6644
2019-02-18T13:09:10.988Z,6620
2019-02-18T13:10:12.397Z,6600
2019-02-18T13:11:13.754Z,6572
2019-02-18T13:12:15.159Z,6556
2019-02-18T13:13:16.559Z,6508
2019-02-18T13:14:18.049Z,6500
2019-02-18T13:15:19.481Z,6480
2019-02-18T13:16:20.787Z,6436
2019-02-18T13:17:22.188Z,6448
2019-02-18T13:18:23.591Z,6428
2019-02-18T13:19:25.056Z,6416
2019-02-18T13:20:26.455Z,6384
2019-02-18T13:21:27.869Z,6384
2019-02-18T13:22:29.272Z,6356
2019-02-18T13:23:30.749Z,6340
2019-02-18T13:24:32.163Z,6324
2019-02-18T13:25:33.560Z,6304
2019-02-18T13:26:34.962Z,6300
2019-02-18T13:27:36.397Z,6256
2019-02-18T13:28:37.769Z,6240
2019-02-18T13:29:39.168Z,6196
2019-02-18T13:30:40.579Z,6164
2019-02-18T13:31:41.988Z,6160
2019-02-18T13:32:43.386Z,6120
2019-02-18T13:33:44.789Z,6104
2019-02-18T13:34:46.192Z,6116
2019-02-18T13:35:48.757Z,6060
2019-02-18T13:36:48.970Z,6024
2019-02-18T13:37:50.337Z,6012
2019-02-18T13:38:58.596Z,5988
2019-02-18T13:39:59.990Z,5968
2019-02-18T13:41:01.394Z,5944
2019-02-18T13:42:07.438Z,5920
2019-02-18T13:43:04.162Z,5884
2019-02-18T13:44:05.566Z,5840
2019-02-18T13:45:06.968Z,5796
2019-02-18T13:46:08.369Z,5760
2019-02-18T13:47:09.774Z,5728
2019-02-18T13:48:11.145Z,5696
2019-02-18T13:49:12.544Z,5668
2019-02-18T13:50:13.949Z,5628
2019-02-18T13:51:15.351Z,5588
2019-02-18T13:52:16.758Z,5548
2019-02-18T13:53:18.158Z,5520
2019-02-18T13:54:19.563Z,5492
2019-02-18T13:55:20.964Z,5456
2019-02-18T13:56:22.363Z,5436
2019-02-18T13:57:23.739Z,5428
2019-02-18T13:58:25.140Z,5408
2019-02-18T13:59:26.537Z,5384
2019-02-18T14:00:28.077Z,5340
2019-02-18T14:01:29.479Z,5304
2019-02-18T14:02:30.885Z,5268
2019-02-18T14:03:32.282Z,5220
2019-02-18T14:04:33.702Z,5192
2019-02-18T14:05:35.111Z,5148
2019-02-18T14:06:36.488Z,5112
2019-02-18T14:07:37.894Z,5096
2019-02-18T14:08:39.308Z,5064
2019-02-18T14:09:40.724Z,5024
2019-02-18T14:10:42.131Z,5004
2019-02-18T14:11:43.572Z,4880
2019-02-18T14:12:44.972Z,4892
2019-02-18T14:13:46.370Z,4892
2019-02-18T14:14:47.781Z,4800
2019-02-18T14:15:49.182Z,4712
2019-02-18T14:16:50.543Z,4656
2019-02-18T14:17:51.957Z,4768